Hauptseite
METAR-TAF:

METAR-TAF

Flughäfen :

Flughafen Cuneo

Cuneo, Italien

Breite: 44-32-47N, Länge: 007-37-20E, Höhe: 386 m

Beobachtung

Neuester Wetterbericht von vor 29 Minuten, um 12:20 UTC
Wind 6 kt aus Nord/Nordost
Temperatur 8°C
Luftfeuchtigkeit 87%
Luftdruck 1006 hPa
Sichtweite 10 km oder mehr

METAR: LIMZ 241220Z AUTO 02006KT 9999 BKN008/// 08/06 Q1006

Zeit: 13:49 (12:49 UTC)

Prognose

Neuester Wetterbericht von vor 1 Stunde und 49 Minuten, um 11:00 UTC
Gültige Prognose vom 24 um 12 UTC bis 25 um 12 UTC
Wind 5 kt aus unterschiedlichen Richtungen
Sichtweite: 6000 m
Durchbrochene Bewölkung in der Höhe von 1000 ft
Zeitweise
vom 24 um 18 UTC bis 24 um 22 UTC
Regen
Zeitweise
vom 24 um 22 UTC bis 25 um 08 UTC
Sichtweite: 0600 m
Nebel,

TAF: LIMZ 241100Z 2412/2512 VRB05KT 6000 BKN010 TEMPO 2418/2422 RA TEMPO 2422/2508 0600 FG

Wetterbeobachtungen und Prognosen von mehr als 4000 Flughäfen (METAR und TAF Bericht).

Die verfügbaren Stationen werden durch gelbe und rote Markierungen auf der Karte dargestellt.

Führen Sie die Maus auf sie, um den Namen der Station zu sehen.

Darauf klicken, um die Beobachtung von Wetterbeobachtungen und Prognosen zu sehen.

Um die Karte zu ändern : klicken Sie auf den grünen Tasten mit einem schwarzen Kreuz Zum Vergrößern, auf den grünen Button mit einem Gedankenstrich zu verkleinern, oder auf die grünen Pfeile für benachbarte Karten.


METAR-TAF: